createdAt,value
2018-12-12T00:00:46.944Z,15.50
2018-12-12T00:01:46.917Z,16.30
2018-12-12T00:02:46.894Z,19.10
2018-12-12T00:03:46.868Z,15.20
2018-12-12T00:04:46.845Z,15.10
2018-12-12T00:05:46.819Z,13.30
2018-12-12T00:06:46.805Z,16.70
2018-12-12T00:07:46.766Z,14.70
2018-12-12T00:08:46.760Z,14.60
2018-12-12T00:09:46.720Z,12.60
2018-12-12T00:10:46.692Z,14.70
2018-12-12T00:11:46.671Z,17.60
2018-12-12T00:12:46.643Z,18.40
2018-12-12T00:13:46.624Z,17.60
2018-12-12T00:14:46.593Z,18.90
2018-12-12T00:15:46.568Z,13.10
2018-12-12T00:16:46.542Z,14.90
2018-12-12T00:17:46.520Z,9.90
2018-12-12T00:18:46.492Z,14.70
2018-12-12T00:19:46.466Z,15.50
2018-12-12T00:20:46.446Z,14.40
2018-12-12T00:21:46.422Z,11.80
2018-12-12T00:22:46.392Z,12.40
2018-12-12T00:23:46.367Z,13.90
2018-12-12T00:24:46.342Z,12.80
2018-12-12T00:25:46.316Z,11.80
2018-12-12T00:26:46.293Z,12.90
2018-12-12T00:27:46.271Z,14.60
2018-12-12T00:28:46.238Z,15.10
2018-12-12T00:29:46.222Z,17.50
2018-12-12T00:30:46.187Z,17.80
2018-12-12T00:31:46.166Z,14.00
2018-12-12T00:32:46.138Z,12.10
2018-12-12T00:33:46.113Z,13.50
2018-12-12T00:34:46.087Z,11.70
2018-12-12T00:35:46.063Z,11.80
2018-12-12T00:36:46.039Z,14.70
2018-12-12T00:37:46.013Z,11.50
2018-12-12T00:38:45.986Z,12.00
2018-12-12T00:39:45.963Z,11.90
2018-12-12T00:40:45.939Z,13.90
2018-12-12T00:41:45.917Z,12.70
2018-12-12T00:42:45.885Z,15.80
2018-12-12T00:43:45.868Z,13.20
2018-12-12T00:44:45.833Z,15.80
2018-12-12T00:45:45.810Z,16.90
2018-12-12T00:46:45.786Z,17.20
2018-12-12T00:47:45.762Z,15.20
2018-12-12T00:48:45.734Z,12.90
2018-12-12T00:49:45.713Z,14.80
2018-12-12T00:50:45.684Z,14.00
2018-12-12T00:51:45.660Z,13.90
2018-12-12T00:52:45.633Z,11.70
2018-12-12T00:53:45.607Z,16.00
2018-12-12T00:54:45.587Z,12.10
2018-12-12T00:55:46.384Z,11.90
2018-12-12T00:56:45.536Z,16.30
2018-12-12T00:57:45.508Z,17.70
2018-12-12T00:58:45.482Z,12.60
2018-12-12T00:59:45.458Z,15.00
2018-12-12T01:00:45.434Z,16.30
2018-12-12T01:01:45.408Z,10.50
2018-12-12T01:02:45.383Z,12.70
2018-12-12T01:03:45.366Z,12.70
2018-12-12T01:04:45.341Z,12.60
2018-12-12T01:05:45.315Z,17.70
2018-12-12T01:06:45.286Z,13.20
2018-12-12T01:07:45.256Z,13.00
2018-12-12T01:08:45.232Z,12.50
2018-12-12T01:09:45.208Z,12.90
2018-12-12T01:10:45.179Z,15.30
2018-12-12T01:11:45.154Z,14.90
2018-12-12T01:12:45.129Z,16.90
2018-12-12T01:13:45.106Z,13.10
2018-12-12T01:14:45.081Z,14.60
2018-12-12T01:15:45.056Z,13.10
2018-12-12T01:16:45.033Z,13.90
2018-12-12T01:17:45.005Z,15.70
2018-12-12T01:18:44.980Z,12.50
2018-12-12T01:19:44.955Z,12.60
2018-12-12T01:20:44.933Z,16.30
2018-12-12T01:21:44.908Z,14.10
2018-12-12T01:22:44.880Z,11.30
2018-12-12T01:23:44.858Z,11.00
2018-12-12T01:24:44.829Z,12.70
2018-12-12T01:25:44.807Z,16.40
2018-12-12T01:26:44.779Z,16.20
2018-12-12T01:27:44.761Z,13.30
2018-12-12T01:28:44.730Z,14.10
2018-12-12T01:29:44.705Z,11.80
2018-12-12T01:30:44.679Z,19.90
2018-12-12T01:31:44.660Z,13.80
2018-12-12T01:32:44.629Z,24.60
2018-12-12T01:33:44.604Z,13.10
2018-12-12T01:34:44.580Z,17.10
2018-12-12T01:35:44.562Z,18.40
2018-12-12T01:36:44.534Z,19.90
2018-12-12T01:37:44.513Z,17.90
2018-12-12T01:38:44.487Z,14.90
2018-12-12T01:39:44.453Z,13.80
2018-12-12T01:40:44.427Z,13.70
2018-12-12T01:41:44.404Z,14.50
2018-12-12T01:42:44.378Z,14.50
2018-12-12T01:43:44.351Z,13.00
2018-12-12T01:44:44.328Z,14.20
2018-12-12T01:45:44.303Z,15.60
2018-12-12T01:46:44.278Z,20.70
2018-12-12T01:47:44.255Z,16.50
2018-12-12T01:48:44.228Z,13.80
2018-12-12T01:49:44.205Z,14.90
2018-12-12T01:50:44.179Z,16.40
2018-12-12T01:51:44.156Z,19.90
2018-12-12T01:52:44.130Z,16.30
2018-12-12T01:53:44.105Z,17.00
2018-12-12T01:54:44.080Z,18.60
2018-12-12T01:55:44.064Z,18.70
2018-12-12T01:56:44.031Z,18.70
2018-12-12T01:57:44.014Z,17.40
2018-12-12T01:58:43.981Z,16.40
2018-12-12T01:59:43.955Z,16.50
2018-12-12T02:00:43.932Z,16.00
2018-12-12T02:01:43.907Z,15.60
2018-12-12T02:02:43.881Z,16.70
2018-12-12T02:03:43.852Z,15.80
2018-12-12T02:04:43.827Z,13.60
2018-12-12T02:05:43.807Z,16.80
2018-12-12T02:06:43.775Z,12.50
2018-12-12T02:07:43.750Z,16.60
2018-12-12T02:08:43.729Z,18.50
2018-12-12T02:09:43.702Z,14.90
2018-12-12T02:10:43.677Z,14.60
2018-12-12T02:11:43.651Z,14.40
2018-12-12T02:12:43.630Z,13.90
2018-12-12T02:13:43.603Z,15.70
2018-12-12T02:14:43.577Z,15.10
2018-12-12T02:15:43.554Z,16.40
2018-12-12T02:16:43.528Z,18.10
2018-12-12T02:17:43.511Z,16.10
2018-12-12T02:18:43.482Z,15.20
2018-12-12T02:19:43.453Z,13.20
2018-12-12T02:20:43.426Z,14.90
2018-12-12T02:21:43.402Z,14.50
2018-12-12T02:22:43.377Z,13.20
2018-12-12T02:23:43.413Z,12.40
2018-12-12T02:24:43.327Z,17.60
2018-12-12T02:25:43.302Z,10.10
2018-12-12T02:26:43.277Z,10.50
2018-12-12T02:27:43.253Z,12.20
2018-12-12T02:28:43.227Z,12.70
2018-12-12T02:29:43.202Z,12.90
2018-12-12T02:30:43.176Z,13.80
2018-12-12T02:31:43.156Z,14.90
2018-12-12T02:32:43.128Z,12.70
2018-12-12T02:33:43.103Z,12.30
2018-12-12T02:34:43.077Z,15.90
2018-12-12T02:35:43.050Z,12.10
2018-12-12T02:36:43.026Z,11.40
2018-12-12T02:37:43.003Z,18.30
2018-12-12T02:38:42.976Z,14.00
2018-12-12T02:39:42.958Z,15.80
2018-12-12T02:40:42.927Z,11.30
2018-12-12T02:41:42.938Z,12.10
2018-12-12T02:42:42.883Z,14.90
2018-12-12T02:43:42.857Z,13.70
2018-12-12T02:44:42.829Z,17.20
2018-12-12T02:45:42.806Z,14.70
2018-12-12T02:46:42.783Z,19.90
2018-12-12T02:47:42.754Z,15.40
2018-12-12T02:48:42.725Z,16.20
2018-12-12T02:49:42.701Z,13.20
2018-12-12T02:50:42.677Z,16.60
2018-12-12T02:51:42.660Z,15.80
2018-12-12T02:52:42.632Z,19.30
2018-12-12T02:53:42.603Z,19.10
2018-12-12T02:54:42.575Z,14.60
2018-12-12T02:55:42.549Z,14.70
2018-12-12T02:56:42.527Z,13.80
2018-12-12T02:57:42.501Z,14.30
2018-12-12T02:58:42.475Z,15.60
2018-12-12T02:59:42.450Z,21.30
2018-12-12T03:00:42.424Z,19.20
2018-12-12T03:01:42.400Z,18.30
2018-12-12T03:02:42.374Z,22.30
2018-12-12T03:03:42.350Z,17.10
2018-12-12T03:04:42.324Z,17.10
2018-12-12T03:05:42.302Z,18.30
2018-12-12T03:06:42.274Z,19.20
2018-12-12T03:07:42.248Z,14.60
2018-12-12T03:08:42.225Z,14.20
2018-12-12T03:09:42.205Z,15.70
2018-12-12T03:10:42.176Z,19.70
2018-12-12T03:11:42.148Z,21.30
2018-12-12T03:12:42.123Z,16.80
2018-12-12T03:13:42.103Z,12.90
2018-12-12T03:14:42.076Z,19.20
2018-12-12T03:15:42.051Z,16.90
2018-12-12T03:16:42.025Z,16.60
2018-12-12T03:17:42.000Z,16.10
2018-12-12T03:18:41.973Z,16.80
2018-12-12T03:19:41.954Z,17.40
2018-12-12T03:20:41.940Z,18.70
2018-12-12T03:21:41.898Z,18.60
2018-12-12T03:22:41.877Z,15.00
2018-12-12T03:23:41.850Z,21.30
2018-12-12T03:24:41.839Z,18.00
2018-12-12T03:25:41.800Z,21.00
2018-12-12T03:26:41.774Z,14.80
2018-12-12T03:27:41.748Z,20.90
2018-12-12T03:28:41.729Z,17.60
2018-12-12T03:29:41.702Z,16.50
2018-12-12T03:30:41.679Z,18.40
2018-12-12T03:31:41.650Z,22.70
2018-12-12T03:32:41.632Z,18.30
2018-12-12T03:33:41.600Z,19.80
2018-12-12T03:34:41.580Z,16.70
2018-12-12T03:35:41.552Z,16.60
2018-12-12T03:36:41.530Z,16.80
2018-12-12T03:37:41.540Z,17.20
2018-12-12T03:38:41.475Z,19.70
2018-12-12T03:39:41.450Z,18.10
2018-12-12T03:40:41.425Z,18.40
2018-12-12T03:41:41.416Z,19.10
2018-12-12T03:42:41.377Z,19.30
2018-12-12T03:43:41.349Z,21.70
2018-12-12T03:44:41.323Z,20.60
2018-12-12T03:45:41.303Z,18.70
2018-12-12T03:46:41.282Z,17.50
2018-12-12T03:47:41.250Z,17.30
2018-12-12T03:48:41.226Z,18.60
2018-12-12T03:49:41.200Z,14.00
2018-12-12T03:50:41.175Z,21.10
2018-12-12T03:51:41.153Z,15.50
2018-12-12T03:52:41.127Z,16.90
2018-12-12T03:53:41.101Z,16.70
2018-12-12T03:54:41.073Z,19.20
2018-12-12T03:55:41.061Z,19.90
2018-12-12T03:56:41.024Z,16.00
2018-12-12T03:57:41.001Z,19.90
2018-12-12T03:58:40.973Z,20.50
2018-12-12T03:59:40.950Z,15.20
2018-12-12T04:00:40.924Z,18.80
2018-12-12T04:01:40.900Z,20.00
2018-12-12T04:02:40.891Z,16.60
2018-12-12T04:03:40.852Z,19.30
2018-12-12T04:04:40.843Z,20.90
2018-12-12T04:05:40.800Z,15.90
2018-12-12T04:06:40.775Z,17.50
2018-12-12T04:07:40.748Z,20.30
2018-12-12T04:08:40.724Z,17.20
2018-12-12T04:09:40.701Z,17.60
2018-12-12T04:10:40.683Z,19.50
2018-12-12T04:11:40.651Z,17.40
2018-12-12T04:12:40.626Z,19.00
2018-12-12T04:13:40.599Z,19.60
2018-12-12T04:14:40.574Z,18.20
2018-12-12T04:15:40.549Z,21.80
2018-12-12T04:16:40.524Z,16.60
2018-12-12T04:17:40.501Z,16.40
2018-12-12T04:18:40.559Z,17.40
2018-12-12T04:19:40.454Z,16.40
2018-12-12T04:20:40.424Z,16.10
2018-12-12T04:21:40.399Z,19.10
2018-12-12T04:22:40.374Z,16.40
2018-12-12T04:23:40.350Z,13.40
2018-12-12T04:24:40.332Z,14.60
2018-12-12T04:25:40.299Z,15.00
2018-12-12T04:26:40.273Z,15.80
2018-12-12T04:27:40.248Z,15.80
2018-12-12T04:28:40.225Z,15.00
2018-12-12T04:29:40.202Z,19.60
2018-12-12T04:30:40.172Z,18.40
2018-12-12T04:31:40.165Z,14.90
2018-12-12T04:32:40.123Z,16.60
2018-12-12T04:33:40.102Z,19.40
2018-12-12T04:34:40.074Z,17.40
2018-12-12T04:35:40.048Z,18.90
2018-12-12T04:36:40.023Z,16.70
2018-12-12T04:37:40.001Z,16.00
2018-12-12T04:38:39.976Z,18.10
2018-12-12T04:39:39.949Z,14.60
2018-12-12T04:40:39.926Z,18.00
2018-12-12T04:41:39.901Z,16.60
2018-12-12T04:42:39.872Z,17.30
2018-12-12T04:43:39.858Z,20.60
2018-12-12T04:44:39.826Z,20.40
2018-12-12T04:45:39.801Z,17.70
2018-12-12T04:46:39.773Z,18.00
2018-12-12T04:47:39.753Z,16.30
2018-12-12T04:48:39.725Z,18.70
2018-12-12T04:49:39.702Z,14.70
2018-12-12T04:50:39.673Z,16.30
2018-12-12T04:51:39.655Z,17.90
2018-12-12T04:52:39.625Z,16.20
2018-12-12T04:53:39.601Z,19.70
2018-12-12T04:54:39.574Z,16.70
2018-12-12T04:55:39.549Z,16.60
2018-12-12T04:56:39.528Z,16.90
2018-12-12T04:57:39.507Z,19.00
2018-12-12T04:58:39.477Z,17.90
2018-12-12T04:59:39.460Z,18.10
2018-12-12T05:00:39.432Z,15.40
2018-12-12T05:01:39.409Z,15.80
2018-12-12T05:02:39.375Z,17.10
2018-12-12T05:03:39.360Z,13.50
2018-12-12T05:04:39.325Z,17.60
2018-12-12T05:05:39.302Z,17.80
2018-12-12T05:06:39.276Z,15.50
2018-12-12T05:07:39.253Z,15.60
2018-12-12T05:08:39.230Z,18.20
2018-12-12T05:09:39.201Z,16.40
2018-12-12T05:10:39.176Z,15.50
2018-12-12T05:11:39.152Z,22.20
2018-12-12T05:12:39.129Z,17.40
2018-12-12T05:13:39.104Z,16.30
2018-12-12T05:14:39.075Z,18.70
2018-12-12T05:15:39.050Z,19.20
2018-12-12T05:16:39.024Z,15.30
2018-12-12T05:17:39.004Z,19.20
2018-12-12T05:18:38.975Z,19.40
2018-12-12T05:19:38.948Z,17.00
2018-12-12T05:20:38.925Z,19.10
2018-12-12T05:21:38.903Z,18.20
2018-12-12T05:22:38.876Z,17.10
2018-12-12T05:23:38.916Z,17.40
2018-12-12T05:24:38.827Z,16.90
2018-12-12T05:25:38.801Z,22.70
2018-12-12T05:26:38.775Z,18.60
2018-12-12T05:27:38.750Z,14.70
2018-12-12T05:28:38.727Z,18.20
2018-12-12T05:29:38.701Z,15.20
2018-12-12T05:30:38.675Z,19.30
2018-12-12T05:31:38.649Z,17.10
2018-12-12T05:32:38.625Z,18.00
2018-12-12T05:33:38.602Z,15.70
2018-12-12T05:34:38.573Z,17.10
2018-12-12T05:35:38.556Z,17.00
2018-12-12T05:36:38.523Z,17.20
2018-12-12T05:37:38.507Z,15.60
2018-12-12T05:38:38.474Z,19.10
2018-12-12T05:39:38.448Z,15.30
2018-12-12T05:40:38.432Z,18.20
2018-12-12T05:41:38.401Z,15.60
2018-12-12T05:42:38.373Z,16.30
2018-12-12T05:43:38.348Z,17.30
2018-12-12T05:44:38.324Z,16.60
2018-12-12T05:45:38.299Z,16.30
2018-12-12T05:46:41.856Z,16.90
2018-12-12T05:47:38.248Z,14.50
2018-12-12T05:48:38.222Z,15.70
2018-12-12T05:49:38.197Z,15.20
2018-12-12T05:50:38.170Z,14.70
2018-12-12T05:51:38.155Z,20.90
2018-12-12T05:52:38.122Z,15.30
2018-12-12T05:53:38.105Z,15.00
2018-12-12T05:54:38.069Z,16.10
2018-12-12T05:55:38.045Z,16.40
2018-12-12T05:56:38.020Z,17.80
2018-12-12T05:57:38.001Z,17.20
2018-12-12T05:58:37.972Z,15.30
2018-12-12T05:59:37.946Z,15.60
2018-12-12T06:00:37.925Z,19.60
2018-12-12T06:01:37.996Z,16.10
2018-12-12T06:02:37.871Z,17.70
2018-12-12T06:03:37.845Z,17.40
2018-12-12T06:04:37.818Z,17.60
2018-12-12T06:05:37.796Z,18.50
2018-12-12T06:06:37.776Z,18.50
2018-12-12T06:07:37.744Z,15.30
2018-12-12T06:08:37.729Z,16.70
2018-12-12T06:09:37.694Z,19.40
2018-12-12T06:10:37.670Z,17.60
2018-12-12T06:11:38.882Z,17.20
2018-12-12T06:12:37.620Z,18.60
2018-12-12T06:13:37.596Z,18.90
2018-12-12T06:14:37.569Z,18.10
2018-12-12T06:15:37.545Z,17.60
2018-12-12T06:16:37.518Z,19.00
2018-12-12T06:17:37.510Z,20.30
2018-12-12T06:18:37.468Z,21.50
2018-12-12T06:19:37.451Z,17.40
2018-12-12T06:20:37.419Z,17.80
2018-12-12T06:21:37.392Z,17.20
2018-12-12T06:22:38.021Z,18.00
2018-12-12T06:23:37.343Z,16.70
2018-12-12T06:24:37.317Z,20.20
2018-12-12T06:25:37.292Z,17.60
2018-12-12T06:26:37.741Z,19.40
2018-12-12T06:27:37.241Z,20.10
2018-12-12T06:28:37.216Z,17.30
2018-12-12T06:29:37.198Z,18.00
2018-12-12T06:30:37.167Z,19.90
2018-12-12T06:31:37.143Z,18.50
2018-12-12T06:32:37.117Z,18.10
2018-12-12T06:33:37.107Z,19.00
2018-12-12T06:34:37.070Z,19.20
2018-12-12T06:35:37.043Z,17.80
2018-12-12T06:36:37.024Z,19.00
2018-12-12T06:37:36.991Z,19.30
2018-12-12T06:38:36.967Z,18.90
2018-12-12T06:39:36.944Z,19.00
2018-12-12T06:40:36.922Z,20.30
2018-12-12T06:41:36.891Z,21.50
2018-12-12T06:42:36.875Z,21.40
2018-12-12T06:43:36.840Z,24.20
2018-12-12T06:44:36.818Z,21.90
2018-12-12T06:45:36.797Z,19.00
2018-12-12T06:46:36.768Z,21.30
2018-12-12T06:47:36.743Z,20.90
2018-12-12T06:48:36.717Z,20.20
2018-12-12T06:49:36.690Z,21.00
2018-12-12T06:50:36.668Z,20.30
2018-12-12T06:51:36.637Z,22.20
2018-12-12T06:52:36.613Z,19.50
2018-12-12T06:53:36.589Z,21.60
2018-12-12T06:54:36.563Z,19.90
2018-12-12T06:55:36.536Z,22.50
2018-12-12T06:56:36.515Z,20.10
2018-12-12T06:57:36.487Z,19.40
2018-12-12T06:58:36.463Z,18.80
2018-12-12T06:59:36.440Z,20.00
2018-12-12T07:00:36.413Z,18.60
2018-12-12T07:01:36.389Z,21.00
2018-12-12T07:02:36.362Z,20.00
2018-12-12T07:03:36.346Z,17.80
2018-12-12T07:04:36.313Z,18.30
2018-12-12T07:05:36.288Z,18.60
2018-12-12T07:06:36.262Z,19.60
2018-12-12T07:07:36.239Z,18.10
2018-12-12T07:08:36.215Z,18.20
2018-12-12T07:09:36.187Z,18.70
2018-12-12T07:10:36.159Z,17.00
2018-12-12T07:11:36.137Z,18.10
2018-12-12T07:12:36.112Z,18.40
2018-12-12T07:13:36.096Z,17.80
2018-12-12T07:14:36.060Z,21.30
2018-12-12T07:15:36.036Z,18.10
2018-12-12T07:16:36.013Z,17.80
2018-12-12T07:17:35.989Z,18.70
2018-12-12T07:18:35.961Z,18.80
2018-12-12T07:19:35.937Z,18.30
2018-12-12T07:20:35.910Z,18.10
2018-12-12T07:21:35.884Z,20.50
2018-12-12T07:22:35.858Z,18.00
2018-12-12T07:23:35.835Z,21.00
2018-12-12T07:24:35.813Z,17.20
2018-12-12T07:25:35.785Z,19.50
2018-12-12T07:26:35.760Z,17.90
2018-12-12T07:27:35.748Z,16.10
2018-12-12T07:28:35.710Z,16.50
2018-12-12T07:29:35.686Z,18.30
2018-12-12T07:30:35.659Z,19.00
2018-12-12T07:31:35.637Z,18.80
2018-12-12T07:32:35.610Z,19.20
2018-12-12T07:33:35.585Z,17.40
2018-12-12T07:34:35.556Z,18.50
2018-12-12T07:35:35.533Z,16.30
2018-12-12T07:36:35.515Z,16.70
2018-12-12T07:37:35.483Z,20.50
2018-12-12T07:38:35.458Z,17.00
2018-12-12T07:39:35.438Z,17.60
2018-12-12T07:40:35.407Z,17.20
2018-12-12T07:41:35.382Z,16.70
2018-12-12T07:42:35.358Z,18.30
2018-12-12T07:43:35.334Z,17.90
2018-12-12T07:44:35.307Z,17.20
2018-12-12T07:45:35.283Z,17.00
2018-12-12T07:46:35.257Z,17.90
2018-12-12T07:47:35.230Z,20.10
2018-12-12T07:48:35.206Z,19.90
2018-12-12T07:49:35.186Z,17.50
2018-12-12T07:50:35.157Z,17.70
2018-12-12T07:51:35.135Z,18.80
2018-12-12T07:52:35.118Z,16.90
2018-12-12T07:53:35.080Z,18.10
2018-12-12T07:54:35.060Z,19.30
2018-12-12T07:55:35.033Z,18.80
2018-12-12T07:56:35.007Z,19.30
2018-12-12T07:57:34.991Z,17.70
2018-12-12T07:58:34.967Z,17.50
2018-12-12T07:59:34.930Z,16.50
2018-12-12T08:00:34.910Z,18.40
2018-12-12T08:01:34.882Z,18.10
2018-12-12T08:02:34.858Z,22.10
2018-12-12T08:03:34.832Z,16.50
2018-12-12T08:04:34.811Z,16.80
2018-12-12T08:05:34.797Z,16.80
2018-12-12T08:06:34.761Z,16.60
2018-12-12T08:07:34.730Z,16.50
2018-12-12T08:08:34.706Z,18.30
2018-12-12T08:09:35.841Z,18.10
2018-12-12T08:10:34.654Z,18.50
2018-12-12T08:11:34.631Z,19.20
2018-12-12T08:12:34.606Z,19.60
2018-12-12T08:13:34.581Z,17.60
2018-12-12T08:14:34.558Z,19.20
2018-12-12T08:15:34.737Z,22.10
2018-12-12T08:16:34.512Z,18.00
2018-12-12T08:17:34.497Z,18.90
2018-12-12T08:18:34.462Z,19.00
2018-12-12T08:19:34.433Z,18.60
2018-12-12T08:20:34.407Z,19.60
2018-12-12T08:21:34.386Z,19.10
2018-12-12T08:22:34.357Z,18.80
2018-12-12T08:23:34.332Z,19.20
2018-12-12T08:24:34.309Z,18.20
2018-12-12T08:25:34.279Z,20.10
2018-12-12T08:26:34.264Z,19.80
2018-12-12T08:27:34.237Z,19.30
2018-12-12T08:28:34.204Z,17.60
2018-12-12T08:29:34.181Z,17.20
2018-12-12T08:30:34.153Z,18.70
2018-12-12T08:31:34.135Z,16.90
2018-12-12T08:32:34.105Z,18.60
2018-12-12T08:33:34.081Z,17.10
2018-12-12T08:34:34.056Z,17.90
2018-12-12T08:35:34.031Z,18.60
2018-12-12T08:36:34.013Z,18.60
2018-12-12T08:37:34.006Z,19.30
2018-12-12T08:38:33.957Z,20.70
2018-12-12T08:39:33.929Z,18.80
2018-12-12T08:40:33.907Z,19.00
2018-12-12T08:41:33.881Z,19.10
2018-12-12T08:42:33.851Z,19.10
2018-12-12T08:43:33.829Z,19.50
2018-12-12T08:44:33.815Z,18.20
2018-12-12T08:45:33.779Z,20.00
2018-12-12T08:46:33.752Z,19.20
2018-12-12T08:47:33.730Z,18.20
2018-12-12T08:48:33.704Z,20.20
2018-12-12T08:49:33.677Z,19.20
2018-12-12T08:50:33.665Z,19.20
2018-12-12T08:51:33.626Z,19.80
2018-12-12T08:52:33.603Z,19.50
2018-12-12T08:53:33.586Z,23.80
2018-12-12T08:54:33.557Z,19.90
2018-12-12T08:55:33.529Z,19.10
2018-12-12T08:56:33.505Z,17.50
2018-12-12T08:57:33.477Z,19.20
2018-12-12T08:58:33.451Z,18.60
2018-12-12T08:59:33.426Z,18.90
2018-12-12T09:00:33.402Z,19.40
2018-12-12T09:01:33.378Z,20.90
2018-12-12T09:02:33.352Z,18.40
2018-12-12T09:03:33.330Z,18.20
2018-12-12T09:04:33.301Z,17.60
2018-12-12T09:05:33.361Z,17.60
2018-12-12T09:06:33.252Z,17.20
2018-12-12T09:07:33.226Z,17.90
2018-12-12T09:08:33.205Z,18.00
2018-12-12T09:09:33.181Z,17.30
2018-12-12T09:10:33.152Z,17.10
2018-12-12T09:11:33.126Z,16.90
2018-12-12T09:12:33.110Z,17.30
2018-12-12T09:13:33.075Z,16.20
2018-12-12T09:14:33.057Z,16.70
2018-12-12T09:15:33.026Z,16.00
2018-12-12T09:16:33.003Z,17.60
2018-12-12T09:17:32.979Z,16.30
2018-12-12T09:18:32.954Z,17.00
2018-12-12T09:19:32.925Z,16.90
2018-12-12T09:20:32.900Z,15.80
2018-12-12T09:21:32.874Z,16.10
2018-12-12T09:22:32.851Z,16.50
2018-12-12T09:23:32.825Z,17.00
2018-12-12T09:24:32.798Z,14.60
2018-12-12T09:25:32.783Z,15.90
2018-12-12T09:26:32.749Z,16.00
2018-12-12T09:27:32.732Z,18.10
2018-12-12T09:28:32.700Z,16.00
2018-12-12T09:29:32.674Z,18.60
2018-12-12T09:30:32.652Z,16.10
2018-12-12T09:31:32.625Z,15.60
2018-12-12T09:32:32.602Z,15.20
2018-12-12T09:33:32.580Z,15.40
2018-12-12T09:34:32.548Z,17.10
2018-12-12T09:35:32.532Z,15.70
2018-12-12T09:36:32.499Z,15.80
2018-12-12T09:37:32.474Z,16.70
2018-12-12T09:38:32.458Z,15.80
2018-12-12T09:39:32.421Z,16.00
2018-12-12T09:40:32.397Z,16.40
2018-12-12T09:41:32.375Z,15.90
2018-12-12T09:42:32.350Z,15.00
2018-12-12T09:43:32.897Z,16.10
2018-12-12T09:44:32.297Z,15.90
2018-12-12T09:45:32.283Z,16.70
2018-12-12T09:46:32.257Z,15.50
2018-12-12T09:47:32.225Z,15.30
2018-12-12T09:48:32.200Z,16.00
2018-12-12T09:49:32.183Z,16.00
2018-12-12T09:50:32.154Z,15.70
2018-12-12T09:51:32.129Z,17.30
2018-12-12T09:52:32.100Z,16.40
2018-12-12T09:53:32.075Z,16.50
2018-12-12T09:54:32.056Z,16.90
2018-12-12T09:55:32.028Z,17.10
2018-12-12T09:56:32.002Z,17.10
2018-12-12T09:57:31.975Z,20.10
2018-12-12T09:58:31.965Z,18.20
2018-12-12T09:59:31.924Z,20.50
2018-12-12T10:00:31.899Z,17.60
2018-12-12T10:01:31.872Z,18.50
2018-12-12T10:02:31.846Z,16.30
2018-12-12T10:03:31.821Z,16.30
2018-12-12T10:04:31.804Z,15.30
2018-12-12T10:05:31.776Z,16.90
2018-12-12T10:06:31.760Z,17.40
2018-12-12T10:07:31.722Z,14.40
2018-12-12T10:08:31.697Z,15.50
2018-12-12T10:09:31.679Z,14.30
2018-12-12T10:10:31.646Z,15.60
2018-12-12T10:11:31.622Z,15.70
2018-12-12T10:12:31.597Z,14.80
2018-12-12T10:13:31.573Z,15.30
2018-12-12T10:14:31.551Z,16.00
2018-12-12T10:15:31.526Z,15.10
2018-12-12T10:16:31.497Z,14.30
2018-12-12T10:17:31.472Z,16.70
2018-12-12T10:18:31.446Z,16.00
2018-12-12T10:19:31.426Z,14.80
2018-12-12T10:20:31.395Z,15.00
2018-12-12T10:21:31.369Z,16.00
2018-12-12T10:22:31.347Z,15.00
2018-12-12T10:23:31.318Z,16.30
2018-12-12T10:24:31.304Z,17.60
2018-12-12T10:25:31.267Z,15.90
2018-12-12T10:26:31.258Z,18.90
2018-12-12T10:27:31.228Z,15.70
2018-12-12T10:28:31.196Z,14.80
2018-12-12T10:29:31.167Z,18.10
2018-12-12T10:30:31.142Z,14.90
2018-12-12T10:31:31.122Z,14.70
2018-12-12T10:32:31.093Z,17.00
2018-12-12T10:33:37.395Z,16.80
2018-12-12T10:34:31.042Z,18.50
2018-12-12T10:35:31.024Z,17.20
2018-12-12T10:36:31.013Z,18.80
2018-12-12T10:37:30.972Z,17.10
2018-12-12T10:38:30.941Z,16.20
2018-12-12T10:39:30.913Z,17.30
2018-12-12T10:40:30.891Z,16.30
2018-12-12T10:41:30.883Z,16.20
2018-12-12T10:42:30.841Z,16.40
2018-12-12T10:43:30.819Z,17.60
2018-12-12T10:44:30.791Z,22.70
2018-12-12T10:45:30.764Z,17.00
2018-12-12T10:46:30.754Z,17.60
2018-12-12T10:47:30.715Z,17.80
2018-12-12T10:48:30.690Z,17.20
2018-12-12T10:49:30.670Z,16.00
2018-12-12T10:50:30.639Z,16.80
2018-12-12T10:51:30.614Z,16.10
2018-12-12T10:52:30.588Z,15.30
2018-12-12T10:53:30.565Z,15.30
2018-12-12T10:54:30.546Z,15.70
2018-12-12T10:55:30.517Z,17.20
2018-12-12T10:56:30.490Z,15.20
2018-12-12T10:57:30.469Z,15.60
2018-12-12T10:58:30.439Z,16.30
2018-12-12T10:59:30.413Z,16.10
2018-12-12T11:00:30.389Z,16.50
2018-12-12T11:01:30.370Z,15.10
2018-12-12T11:02:30.339Z,14.50
2018-12-12T11:03:31.119Z,15.20
2018-12-12T11:04:30.290Z,14.50
2018-12-12T11:05:30.263Z,14.20
2018-12-12T11:06:30.241Z,14.10
2018-12-12T11:07:30.215Z,12.80
2018-12-12T11:08:30.189Z,13.10
2018-12-12T11:09:30.167Z,13.60
2018-12-12T11:10:30.140Z,16.10
2018-12-12T11:11:30.117Z,13.70
2018-12-12T11:12:30.104Z,14.20
2018-12-12T11:13:30.069Z,13.10
2018-12-12T11:14:30.041Z,14.10
2018-12-12T11:15:30.017Z,14.50
2018-12-12T11:16:29.991Z,14.60
2018-12-12T11:17:29.966Z,15.80
2018-12-12T11:18:29.944Z,15.10
2018-12-12T11:19:29.917Z,15.20
2018-12-12T11:20:29.892Z,14.30
2018-12-12T11:21:29.887Z,16.40
2018-12-12T11:22:29.846Z,14.80
2018-12-12T11:23:29.819Z,14.20
2018-12-12T11:24:29.801Z,14.80
2018-12-12T11:25:29.775Z,14.60
2018-12-12T11:26:29.746Z,13.60
2018-12-12T11:27:29.720Z,13.60
2018-12-12T11:28:29.706Z,14.20
2018-12-12T11:29:29.675Z,13.80
2018-12-12T11:30:29.651Z,12.60
2018-12-12T11:31:29.624Z,13.70
2018-12-12T11:32:29.608Z,13.10
2018-12-12T11:33:29.576Z,12.80
2018-12-12T11:34:29.548Z,12.10
2018-12-12T11:35:29.525Z,12.50
2018-12-12T11:36:29.500Z,12.70
2018-12-12T11:37:29.474Z,12.00
2018-12-12T11:38:29.459Z,13.00
2018-12-12T11:39:29.428Z,12.60
2018-12-12T11:40:29.399Z,12.80
2018-12-12T11:41:29.383Z,12.60
2018-12-12T11:42:29.350Z,12.70
2018-12-12T11:43:29.325Z,12.50
2018-12-12T11:44:29.300Z,13.70
2018-12-12T11:45:29.276Z,13.20
2018-12-12T11:46:29.249Z,13.20
2018-12-12T11:47:29.227Z,13.30
2018-12-12T11:48:29.206Z,13.40
2018-12-12T11:49:29.175Z,13.10
2018-12-12T11:50:29.161Z,13.00
2018-12-12T11:51:29.133Z,14.00
2018-12-12T11:52:29.108Z,13.50
2018-12-12T11:53:29.081Z,13.20
2018-12-12T11:54:29.053Z,13.60
2018-12-12T11:55:29.028Z,13.20
2018-12-12T11:56:29.007Z,12.90
2018-12-12T11:57:28.979Z,11.50
2018-12-12T11:58:28.949Z,12.20
2018-12-12T11:59:28.927Z,13.10
2018-12-12T12:00:28.901Z,12.50
2018-12-12T12:01:28.880Z,12.60
2018-12-12T12:02:28.860Z,13.20
2018-12-12T12:03:28.826Z,13.60
2018-12-12T12:04:28.803Z,12.80
2018-12-12T12:05:28.778Z,13.10
2018-12-12T12:06:28.756Z,12.70
2018-12-12T12:07:28.731Z,11.90
2018-12-12T12:08:28.705Z,11.60
2018-12-12T12:09:28.679Z,12.00
2018-12-12T12:10:28.692Z,12.10
2018-12-12T12:11:28.630Z,11.50
2018-12-12T12:12:28.605Z,11.50
2018-12-12T12:13:28.579Z,11.60
2018-12-12T12:14:28.552Z,10.90
2018-12-12T12:15:28.531Z,12.10
2018-12-12T12:16:28.505Z,11.40
2018-12-12T12:17:28.480Z,11.00
2018-12-12T12:18:28.460Z,12.00
2018-12-12T12:19:28.441Z,11.30
2018-12-12T12:20:28.410Z,11.70
2018-12-12T12:21:28.387Z,11.90
2018-12-12T12:22:28.355Z,10.90
2018-12-12T12:23:28.332Z,11.50
2018-12-12T12:24:28.308Z,11.40
2018-12-12T12:25:28.283Z,11.40
2018-12-12T12:26:28.265Z,11.80
2018-12-12T12:27:28.240Z,10.90
2018-12-12T12:28:28.208Z,11.90
2018-12-12T12:29:28.183Z,11.20
2018-12-12T12:30:28.161Z,11.90
2018-12-12T12:31:28.135Z,12.40
2018-12-12T12:32:28.110Z,12.60
2018-12-12T12:33:28.087Z,11.90
2018-12-12T12:34:28.059Z,12.10
2018-12-12T12:35:28.045Z,11.50
2018-12-12T12:36:28.010Z,12.00
2018-12-12T12:37:27.990Z,11.80
2018-12-12T12:38:27.961Z,12.50
2018-12-12T12:39:27.978Z,11.80
2018-12-12T12:40:27.912Z,12.50
2018-12-12T12:41:27.897Z,12.20
2018-12-12T12:42:27.867Z,12.80
2018-12-12T12:43:27.840Z,12.20
2018-12-12T12:44:27.812Z,12.00
2018-12-12T12:45:29.185Z,12.70
2018-12-12T12:46:27.766Z,12.40
2018-12-12T12:47:27.744Z,32.80
2018-12-12T12:48:27.715Z,40.80
2018-12-12T12:49:27.695Z,17.90
2018-12-12T12:50:27.672Z,12.30
2018-12-12T12:51:27.652Z,12.70
2018-12-12T12:52:27.629Z,11.70